sensor_id;sensor_type;location;lat;lon;timestamp;temperature;humidity
44517;DHT22;30223;17.182;-96.766;2023-03-01T00:00:00;27.50;31.70
44517;DHT22;30223;17.182;-96.766;2023-03-01T00:02:27;27.60;31.60
44517;DHT22;30223;17.182;-96.766;2023-03-01T00:04:53;27.60;30.90
44517;DHT22;30223;17.182;-96.766;2023-03-01T00:07:20;27.60;31.10
44517;DHT22;30223;17.182;-96.766;2023-03-01T00:09:47;27.50;30.80
44517;DHT22;30223;17.182;-96.766;2023-03-01T00:12:13;27.50;29.50
44517;DHT22;30223;17.182;-96.766;2023-03-01T00:14:42;27.50;31.30
44517;DHT22;30223;17.182;-96.766;2023-03-01T00:17:09;27.40;31.50
44517;DHT22;30223;17.182;-96.766;2023-03-01T00:19:36;27.40;30.20
44517;DHT22;30223;17.182;-96.766;2023-03-01T00:22:02;27.40;30.70
44517;DHT22;30223;17.182;-96.766;2023-03-01T00:24:29;27.40;29.60
44517;DHT22;30223;17.182;-96.766;2023-03-01T00:26:56;27.40;29.60
44517;DHT22;30223;17.182;-96.766;2023-03-01T00:29:25;27.40;29.90
44517;DHT22;30223;17.182;-96.766;2023-03-01T00:31:52;27.30;30.60
44517;DHT22;30223;17.182;-96.766;2023-03-01T00:34:18;27.40;29.40
44517;DHT22;30223;17.182;-96.766;2023-03-01T00:36:45;27.30;29.50
44517;DHT22;30223;17.182;-96.766;2023-03-01T00:39:14;27.30;29.10
44517;DHT22;30223;17.182;-96.766;2023-03-01T00:41:41;27.20;29.40
44517;DHT22;30223;17.182;-96.766;2023-03-01T00:44:08;27.30;29.50
44517;DHT22;30223;17.182;-96.766;2023-03-01T00:46:35;27.30;29.60
44517;DHT22;30223;17.182;-96.766;2023-03-01T00:49:02;27.20;29.30
44517;DHT22;30223;17.182;-96.766;2023-03-01T00:51:31;27.20;29.30
44517;DHT22;30223;17.182;-96.766;2023-03-01T00:54:00;27.20;29.30
44517;DHT22;30223;17.182;-96.766;2023-03-01T00:56:27;27.20;29.00
44517;DHT22;30223;17.182;-96.766;2023-03-01T00:58:54;27.10;28.90
44517;DHT22;30223;17.182;-96.766;2023-03-01T01:01:23;27.10;28.90
44517;DHT22;30223;17.182;-96.766;2023-03-01T01:04:01;27.10;29.30
44517;DHT22;30223;17.182;-96.766;2023-03-01T01:06:34;27.10;29.10
44517;DHT22;30223;17.182;-96.766;2023-03-01T01:09:02;27.00;29.30
44517;DHT22;30223;17.182;-96.766;2023-03-01T01:11:30;27.00;29.30
44517;DHT22;30223;17.182;-96.766;2023-03-01T01:13:57;27.00;29.50
44517;DHT22;30223;17.182;-96.766;2023-03-01T01:16:25;26.90;29.00
44517;DHT22;30223;17.182;-96.766;2023-03-01T01:18:53;26.90;29.40
44517;DHT22;30223;17.182;-96.766;2023-03-01T01:21:22;26.90;29.40
44517;DHT22;30223;17.182;-96.766;2023-03-01T01:23:50;26.90;29.30
44517;DHT22;30223;17.182;-96.766;2023-03-01T01:26:20;26.90;29.50
44517;DHT22;30223;17.182;-96.766;2023-03-01T01:28:48;26.90;29.70
44517;DHT22;30223;17.182;-96.766;2023-03-01T01:31:15;26.80;30.00
44517;DHT22;30223;17.182;-96.766;2023-03-01T01:33:44;26.90;31.30
44517;DHT22;30223;17.182;-96.766;2023-03-01T01:36:11;26.80;31.60
44517;DHT22;30223;17.182;-96.766;2023-03-01T01:38:39;26.90;32.10
44517;DHT22;30223;17.182;-96.766;2023-03-01T01:41:06;26.90;32.40
44517;DHT22;30223;17.182;-96.766;2023-03-01T01:43:35;26.90;32.50
44517;DHT22;30223;17.182;-96.766;2023-03-01T01:46:28;26.90;32.60
44517;DHT22;30223;17.182;-96.766;2023-03-01T01:49:00;26.80;32.70
44517;DHT22;30223;17.182;-96.766;2023-03-01T01:51:32;26.80;32.80
44517;DHT22;30223;17.182;-96.766;2023-03-01T01:54:10;26.80;32.90
44517;DHT22;30223;17.182;-96.766;2023-03-01T01:56:41;26.80;33.20
44517;DHT22;30223;17.182;-96.766;2023-03-01T01:59:09;26.80;33.20
44517;DHT22;30223;17.182;-96.766;2023-03-01T02:01:36;26.80;32.90
44517;DHT22;30223;17.182;-96.766;2023-03-01T02:04:04;26.80;33.50
44517;DHT22;30223;17.182;-96.766;2023-03-01T02:06:38;26.80;33.50
44517;DHT22;30223;17.182;-96.766;2023-03-01T02:09:10;26.80;33.70
44517;DHT22;30223;17.182;-96.766;2023-03-01T02:11:38;26.70;33.80
44517;DHT22;30223;17.182;-96.766;2023-03-01T02:14:05;26.80;33.90
44517;DHT22;30223;17.182;-96.766;2023-03-01T02:16:32;26.70;33.90
44517;DHT22;30223;17.182;-96.766;2023-03-01T02:19:00;26.70;34.40
44517;DHT22;30223;17.182;-96.766;2023-03-01T02:25:45;26.70;34.60
44517;DHT22;30223;17.182;-96.766;2023-03-01T02:30:46;26.70;35.00
44517;DHT22;30223;17.182;-96.766;2023-03-01T02:33:36;26.60;35.10
44517;DHT22;30223;17.182;-96.766;2023-03-01T02:36:12;26.60;35.20
44517;DHT22;30223;17.182;-96.766;2023-03-01T02:38:43;26.60;35.40
44517;DHT22;30223;17.182;-96.766;2023-03-01T02:41:13;26.60;35.50
44517;DHT22;30223;17.182;-96.766;2023-03-01T02:43:41;26.60;35.60
44517;DHT22;30223;17.182;-96.766;2023-03-01T02:46:17;26.60;35.80
44517;DHT22;30223;17.182;-96.766;2023-03-01T02:48:54;26.60;36.50
44517;DHT22;30223;17.182;-96.766;2023-03-01T02:51:42;26.50;35.90
44517;DHT22;30223;17.182;-96.766;2023-03-01T02:54:42;26.50;36.00
44517;DHT22;30223;17.182;-96.766;2023-03-01T02:57:11;26.50;36.10
44517;DHT22;30223;17.182;-96.766;2023-03-01T02:59:39;26.50;36.30
44517;DHT22;30223;17.182;-96.766;2023-03-01T03:02:07;26.50;36.40
44517;DHT22;30223;17.182;-96.766;2023-03-01T03:04:34;26.50;36.50
44517;DHT22;30223;17.182;-96.766;2023-03-01T03:07:00;26.50;36.60
44517;DHT22;30223;17.182;-96.766;2023-03-01T03:09:31;26.50;36.80
44517;DHT22;30223;17.182;-96.766;2023-03-01T03:11:57;26.50;36.80
44517;DHT22;30223;17.182;-96.766;2023-03-01T03:14:29;26.40;36.80
44517;DHT22;30223;17.182;-96.766;2023-03-01T03:17:00;26.40;36.90
44517;DHT22;30223;17.182;-96.766;2023-03-01T03:19:28;26.40;37.00
44517;DHT22;30223;17.182;-96.766;2023-03-01T03:21:55;26.40;37.10
44517;DHT22;30223;17.182;-96.766;2023-03-01T03:24:21;26.40;37.20
44517;DHT22;30223;17.182;-96.766;2023-03-01T03:26:48;26.40;37.30
44517;DHT22;30223;17.182;-96.766;2023-03-01T03:29:15;26.40;37.30
44517;DHT22;30223;17.182;-96.766;2023-03-01T03:31:41;26.30;37.30
44517;DHT22;30223;17.182;-96.766;2023-03-01T03:34:08;26.30;37.40
44517;DHT22;30223;17.182;-96.766;2023-03-01T03:36:43;26.30;37.60
44517;DHT22;30223;17.182;-96.766;2023-03-01T03:39:10;26.30;37.60
44517;DHT22;30223;17.182;-96.766;2023-03-01T03:41:36;26.30;37.60
44517;DHT22;30223;17.182;-96.766;2023-03-01T03:44:03;26.30;37.70
44517;DHT22;30223;17.182;-96.766;2023-03-01T03:46:29;26.20;37.70
44517;DHT22;30223;17.182;-96.766;2023-03-01T03:48:56;26.30;37.90
44517;DHT22;30223;17.182;-96.766;2023-03-01T03:51:23;26.20;37.90
44517;DHT22;30223;17.182;-96.766;2023-03-01T03:53:49;26.20;37.90
44517;DHT22;30223;17.182;-96.766;2023-03-01T03:56:16;26.20;38.00
44517;DHT22;30223;17.182;-96.766;2023-03-01T03:58:43;26.20;38.00
44517;DHT22;30223;17.182;-96.766;2023-03-01T04:01:09;26.10;37.80
44517;DHT22;30223;17.182;-96.766;2023-03-01T04:03:36;26.10;36.10
44517;DHT22;30223;17.182;-96.766;2023-03-01T04:06:05;26.00;36.40
44517;DHT22;30223;17.182;-96.766;2023-03-01T04:08:32;26.00;36.80
44517;DHT22;30223;17.182;-96.766;2023-03-01T04:11:01;26.00;36.60
44517;DHT22;30223;17.182;-96.766;2023-03-01T04:13:49;26.00;36.60
44517;DHT22;30223;17.182;-96.766;2023-03-01T04:16:16;26.00;36.80
44517;DHT22;30223;17.182;-96.766;2023-03-01T04:18:44;25.90;36.60
44517;DHT22;30223;17.182;-96.766;2023-03-01T04:21:11;25.90;37.00
44517;DHT22;30223;17.182;-96.766;2023-03-01T04:23:38;25.80;36.40
44517;DHT22;30223;17.182;-96.766;2023-03-01T04:26:07;25.80;36.30
44517;DHT22;30223;17.182;-96.766;2023-03-01T04:28:36;25.80;36.00
44517;DHT22;30223;17.182;-96.766;2023-03-01T04:31:06;25.80;36.10
44517;DHT22;30223;17.182;-96.766;2023-03-01T04:33:43;25.70;41.90
44517;DHT22;30223;17.182;-96.766;2023-03-01T04:36:11;25.70;41.80
44517;DHT22;30223;17.182;-96.766;2023-03-01T04:38:39;25.80;39.40
44517;DHT22;30223;17.182;-96.766;2023-03-01T04:41:10;25.70;38.60
44517;DHT22;30223;17.182;-96.766;2023-03-01T04:43:37;25.70;38.50
44517;DHT22;30223;17.182;-96.766;2023-03-01T04:46:10;25.70;38.10
44517;DHT22;30223;17.182;-96.766;2023-03-01T04:48:38;25.70;38.60
44517;DHT22;30223;17.182;-96.766;2023-03-01T04:51:06;25.70;38.60
44517;DHT22;30223;17.182;-96.766;2023-03-01T04:53:34;25.60;37.70
44517;DHT22;30223;17.182;-96.766;2023-03-01T04:56:03;25.60;37.70
44517;DHT22;30223;17.182;-96.766;2023-03-01T04:58:30;25.60;37.70
44517;DHT22;30223;17.182;-96.766;2023-03-01T05:00:57;25.50;36.90
44517;DHT22;30223;17.182;-96.766;2023-03-01T05:03:24;25.50;36.80
44517;DHT22;30223;17.182;-96.766;2023-03-01T05:05:52;25.50;37.00
44517;DHT22;30223;17.182;-96.766;2023-03-01T05:08:19;25.50;37.00
44517;DHT22;30223;17.182;-96.766;2023-03-01T05:10:51;25.50;36.60
44517;DHT22;30223;17.182;-96.766;2023-03-01T05:13:20;25.50;36.90
44517;DHT22;30223;17.182;-96.766;2023-03-01T05:15:55;25.50;36.90
44517;DHT22;30223;17.182;-96.766;2023-03-01T05:18:23;25.40;36.70
44517;DHT22;30223;17.182;-96.766;2023-03-01T05:20:55;25.40;36.60
44517;DHT22;30223;17.182;-96.766;2023-03-01T05:23:25;25.40;36.50
44517;DHT22;30223;17.182;-96.766;2023-03-01T05:25:51;25.30;36.70
44517;DHT22;30223;17.182;-96.766;2023-03-01T05:28:19;25.30;36.80
44517;DHT22;30223;17.182;-96.766;2023-03-01T05:30:47;25.30;36.60
44517;DHT22;30223;17.182;-96.766;2023-03-01T05:33:13;25.20;36.00
44517;DHT22;30223;17.182;-96.766;2023-03-01T05:35:45;25.20;36.30
44517;DHT22;30223;17.182;-96.766;2023-03-01T05:38:12;25.20;36.60
44517;DHT22;30223;17.182;-96.766;2023-03-01T05:40:43;25.20;36.80
44517;DHT22;30223;17.182;-96.766;2023-03-01T05:43:11;25.20;36.90
44517;DHT22;30223;17.182;-96.766;2023-03-01T05:45:39;25.20;37.00
44517;DHT22;30223;17.182;-96.766;2023-03-01T05:48:07;25.10;37.00
44517;DHT22;30223;17.182;-96.766;2023-03-01T05:50:36;25.10;37.10
44517;DHT22;30223;17.182;-96.766;2023-03-01T05:53:09;25.20;37.30
44517;DHT22;30223;17.182;-96.766;2023-03-01T05:55:36;25.20;37.30
44517;DHT22;30223;17.182;-96.766;2023-03-01T05:58:06;25.20;37.30
44517;DHT22;30223;17.182;-96.766;2023-03-01T06:00:33;25.10;37.30
44517;DHT22;30223;17.182;-96.766;2023-03-01T06:03:00;25.10;37.40
44517;DHT22;30223;17.182;-96.766;2023-03-01T06:05:28;25.20;37.60
44517;DHT22;30223;17.182;-96.766;2023-03-01T06:07:55;25.20;37.70
44517;DHT22;30223;17.182;-96.766;2023-03-01T06:10:24;25.10;37.70
44517;DHT22;30223;17.182;-96.766;2023-03-01T06:12:54;25.10;37.70
44517;DHT22;30223;17.182;-96.766;2023-03-01T06:15:21;25.10;37.80
44517;DHT22;30223;17.182;-96.766;2023-03-01T06:17:48;25.10;37.90
44517;DHT22;30223;17.182;-96.766;2023-03-01T06:20:16;25.10;38.00
44517;DHT22;30223;17.182;-96.766;2023-03-01T06:22:43;25.10;38.10
44517;DHT22;30223;17.182;-96.766;2023-03-01T06:25:12;25.10;38.10
44517;DHT22;30223;17.182;-96.766;2023-03-01T06:27:40;25.10;38.20
44517;DHT22;30223;17.182;-96.766;2023-03-01T06:30:08;25.10;38.20
44517;DHT22;30223;17.182;-96.766;2023-03-01T06:32:35;25.10;38.30
44517;DHT22;30223;17.182;-96.766;2023-03-01T06:35:02;25.10;38.30
44517;DHT22;30223;17.182;-96.766;2023-03-01T06:37:29;25.10;38.40
44517;DHT22;30223;17.182;-96.766;2023-03-01T06:39:56;25.10;38.50
44517;DHT22;30223;17.182;-96.766;2023-03-01T06:42:23;25.10;38.60
44517;DHT22;30223;17.182;-96.766;2023-03-01T06:44:49;25.10;38.60
44517;DHT22;30223;17.182;-96.766;2023-03-01T06:47:16;25.00;38.60
44517;DHT22;30223;17.182;-96.766;2023-03-01T06:49:43;25.00;38.70
44517;DHT22;30223;17.182;-96.766;2023-03-01T06:52:10;25.00;38.80
44517;DHT22;30223;17.182;-96.766;2023-03-01T06:54:36;25.00;38.80
44517;DHT22;30223;17.182;-96.766;2023-03-01T06:57:03;25.00;38.90
44517;DHT22;30223;17.182;-96.766;2023-03-01T06:59:30;25.00;38.90
44517;DHT22;30223;17.182;-96.766;2023-03-01T07:01:57;25.00;39.00
44517;DHT22;30223;17.182;-96.766;2023-03-01T07:04:24;25.00;39.00
44517;DHT22;30223;17.182;-96.766;2023-03-01T07:06:51;25.00;39.00
44517;DHT22;30223;17.182;-96.766;2023-03-01T07:09:24;25.00;39.10
44517;DHT22;30223;17.182;-96.766;2023-03-01T07:11:51;24.90;39.10
44517;DHT22;30223;17.182;-96.766;2023-03-01T07:14:18;24.90;39.10
44517;DHT22;30223;17.182;-96.766;2023-03-01T07:16:46;24.90;39.20
44517;DHT22;30223;17.182;-96.766;2023-03-01T07:19:12;24.90;39.20
44517;DHT22;30223;17.182;-96.766;2023-03-01T07:21:39;24.80;39.30
44517;DHT22;30223;17.182;-96.766;2023-03-01T07:24:07;24.80;39.30
44517;DHT22;30223;17.182;-96.766;2023-03-01T07:26:34;24.80;39.40
44517;DHT22;30223;17.182;-96.766;2023-03-01T07:29:02;24.80;39.50
44517;DHT22;30223;17.182;-96.766;2023-03-01T07:31:29;24.80;39.50
44517;DHT22;30223;17.182;-96.766;2023-03-01T07:33:56;24.80;39.50
44517;DHT22;30223;17.182;-96.766;2023-03-01T07:36:23;24.80;39.60
44517;DHT22;30223;17.182;-96.766;2023-03-01T07:38:51;24.80;39.70
44517;DHT22;30223;17.182;-96.766;2023-03-01T07:41:18;24.80;39.70
44517;DHT22;30223;17.182;-96.766;2023-03-01T07:43:45;24.70;39.70
44517;DHT22;30223;17.182;-96.766;2023-03-01T07:46:11;24.70;39.80
44517;DHT22;30223;17.182;-96.766;2023-03-01T07:48:38;24.70;39.80
44517;DHT22;30223;17.182;-96.766;2023-03-01T07:51:06;24.70;39.80
44517;DHT22;30223;17.182;-96.766;2023-03-01T07:53:33;24.70;39.90
44517;DHT22;30223;17.182;-96.766;2023-03-01T07:56:12;24.70;39.90
44517;DHT22;30223;17.182;-96.766;2023-03-01T07:58:40;24.60;40.00
44517;DHT22;30223;17.182;-96.766;2023-03-01T08:01:10;24.70;40.00
44517;DHT22;30223;17.182;-96.766;2023-03-01T08:03:37;24.60;40.00
44517;DHT22;30223;17.182;-96.766;2023-03-01T08:06:06;24.60;40.10
44517;DHT22;30223;17.182;-96.766;2023-03-01T08:08:33;24.60;40.10
44517;DHT22;30223;17.182;-96.766;2023-03-01T08:11:02;24.60;40.80
44517;DHT22;30223;17.182;-96.766;2023-03-01T08:13:29;24.60;40.10
44517;DHT22;30223;17.182;-96.766;2023-03-01T08:16:10;24.60;40.20
44517;DHT22;30223;17.182;-96.766;2023-03-01T08:18:37;24.50;40.20
44517;DHT22;30223;17.182;-96.766;2023-03-01T08:21:06;24.50;40.20
44517;DHT22;30223;17.182;-96.766;2023-03-01T08:23:33;24.50;40.40
44517;DHT22;30223;17.182;-96.766;2023-03-01T08:26:07;24.50;40.40
44517;DHT22;30223;17.182;-96.766;2023-03-01T08:28:34;24.50;40.30
44517;DHT22;30223;17.182;-96.766;2023-03-01T08:31:02;24.50;40.50
44517;DHT22;30223;17.182;-96.766;2023-03-01T08:33:29;24.50;40.50
44517;DHT22;30223;17.182;-96.766;2023-03-01T08:36:05;24.50;40.50
44517;DHT22;30223;17.182;-96.766;2023-03-01T08:38:33;24.50;40.50
44517;DHT22;30223;17.182;-96.766;2023-03-01T08:41:02;24.40;40.50
44517;DHT22;30223;17.182;-96.766;2023-03-01T08:43:29;24.40;40.50
44517;DHT22;30223;17.182;-96.766;2023-03-01T08:45:56;24.40;40.50
44517;DHT22;30223;17.182;-96.766;2023-03-01T08:48:23;24.40;40.50
44517;DHT22;30223;17.182;-96.766;2023-03-01T08:50:50;24.40;40.60
44517;DHT22;30223;17.182;-96.766;2023-03-01T08:53:16;24.40;40.60
44517;DHT22;30223;17.182;-96.766;2023-03-01T08:55:52;24.30;40.60
44517;DHT22;30223;17.182;-96.766;2023-03-01T08:58:19;24.30;40.60
44517;DHT22;30223;17.182;-96.766;2023-03-01T09:00:45;24.30;40.60
44517;DHT22;30223;17.182;-96.766;2023-03-01T09:03:12;24.30;40.60
44517;DHT22;30223;17.182;-96.766;2023-03-01T09:05:39;24.30;40.60
44517;DHT22;30223;17.182;-96.766;2023-03-01T09:08:06;24.30;40.70
44517;DHT22;30223;17.182;-96.766;2023-03-01T09:10:38;24.30;40.80
44517;DHT22;30223;17.182;-96.766;2023-03-01T09:13:05;24.20;40.70
44517;DHT22;30223;17.182;-96.766;2023-03-01T09:15:32;24.20;40.70
44517;DHT22;30223;17.182;-96.766;2023-03-01T09:17:59;24.20;40.70
44517;DHT22;30223;17.182;-96.766;2023-03-01T09:20:26;24.20;40.80
44517;DHT22;30223;17.182;-96.766;2023-03-01T09:22:53;24.20;40.80
44517;DHT22;30223;17.182;-96.766;2023-03-01T09:25:20;24.10;40.80
44517;DHT22;30223;17.182;-96.766;2023-03-01T09:27:46;24.10;40.80
44517;DHT22;30223;17.182;-96.766;2023-03-01T09:30:14;24.10;40.80
44517;DHT22;30223;17.182;-96.766;2023-03-01T09:32:40;24.10;40.90
44517;DHT22;30223;17.182;-96.766;2023-03-01T09:35:09;24.10;40.90
44517;DHT22;30223;17.182;-96.766;2023-03-01T09:37:36;24.10;40.90
44517;DHT22;30223;17.182;-96.766;2023-03-01T09:40:05;24.10;40.90
44517;DHT22;30223;17.182;-96.766;2023-03-01T09:42:34;24.10;41.00
44517;DHT22;30223;17.182;-96.766;2023-03-01T09:45:04;24.00;40.90
44517;DHT22;30223;17.182;-96.766;2023-03-01T09:47:33;24.00;40.90
44517;DHT22;30223;17.182;-96.766;2023-03-01T09:50:16;24.00;41.00
44517;DHT22;30223;17.182;-96.766;2023-03-01T09:55:20;23.90;41.00
44517;DHT22;30223;17.182;-96.766;2023-03-01T10:04:22;23.90;41.00
44517;DHT22;30223;17.182;-96.766;2023-03-01T10:10:06;23.80;41.00
44517;DHT22;30223;17.182;-96.766;2023-03-01T10:12:37;23.80;41.00
44517;DHT22;30223;17.182;-96.766;2023-03-01T10:15:20;23.80;41.10
44517;DHT22;30223;17.182;-96.766;2023-03-01T10:18:19;23.80;41.00
44517;DHT22;30223;17.182;-96.766;2023-03-01T10:20:59;23.80;41.10
44517;DHT22;30223;17.182;-96.766;2023-03-01T10:23:30;23.70;41.00
44517;DHT22;30223;17.182;-96.766;2023-03-01T10:28:45;23.70;41.00
44517;DHT22;30223;17.182;-96.766;2023-03-01T10:31:24;23.70;41.00
44517;DHT22;30223;17.182;-96.766;2023-03-01T10:33:55;23.70;41.10
44517;DHT22;30223;17.182;-96.766;2023-03-01T10:36:23;23.60;41.00
44517;DHT22;30223;17.182;-96.766;2023-03-01T10:38:57;23.60;41.00
44517;DHT22;30223;17.182;-96.766;2023-03-01T10:41:26;23.60;41.00
44517;DHT22;30223;17.182;-96.766;2023-03-01T10:43:56;23.60;41.00
44517;DHT22;30223;17.182;-96.766;2023-03-01T10:46:25;23.60;41.10
44517;DHT22;30223;17.182;-96.766;2023-03-01T10:49:22;23.50;41.10
44517;DHT22;30223;17.182;-96.766;2023-03-01T10:51:53;23.50;41.00
44517;DHT22;30223;17.182;-96.766;2023-03-01T10:54:28;23.50;41.00
44517;DHT22;30223;17.182;-96.766;2023-03-01T10:57:00;23.50;41.00
44517;DHT22;30223;17.182;-96.766;2023-03-01T11:04:36;23.40;41.00
44517;DHT22;30223;17.182;-96.766;2023-03-01T11:07:03;23.40;41.00
44517;DHT22;30223;17.182;-96.766;2023-03-01T11:09:34;23.40;41.10
44517;DHT22;30223;17.182;-96.766;2023-03-01T11:12:14;23.40;41.10
44517;DHT22;30223;17.182;-96.766;2023-03-01T11:15:01;23.30;41.00
44517;DHT22;30223;17.182;-96.766;2023-03-01T11:17:30;23.30;41.00
44517;DHT22;30223;17.182;-96.766;2023-03-01T11:23:09;23.30;41.10
44517;DHT22;30223;17.182;-96.766;2023-03-01T11:26:00;23.20;41.10
44517;DHT22;30223;17.182;-96.766;2023-03-01T11:28:26;23.30;41.10
44517;DHT22;30223;17.182;-96.766;2023-03-01T11:31:06;23.20;41.10
44517;DHT22;30223;17.182;-96.766;2023-03-01T11:33:53;23.20;41.10
44517;DHT22;30223;17.182;-96.766;2023-03-01T11:39:22;23.20;41.10
44517;DHT22;30223;17.182;-96.766;2023-03-01T11:44:43;23.10;41.00
44517;DHT22;30223;17.182;-96.766;2023-03-01T11:50:02;23.10;41.00
44517;DHT22;30223;17.182;-96.766;2023-03-01T11:55:52;23.00;41.00
44517;DHT22;30223;17.182;-96.766;2023-03-01T12:14:51;22.90;41.10
44517;DHT22;30223;17.182;-96.766;2023-03-01T12:17:33;22.90;41.10
44517;DHT22;30223;17.182;-96.766;2023-03-01T12:20:27;22.90;41.10
44517;DHT22;30223;17.182;-96.766;2023-03-01T12:22:59;22.80;41.10
44517;DHT22;30223;17.182;-96.766;2023-03-01T12:25:38;22.80;41.00
44517;DHT22;30223;17.182;-96.766;2023-03-01T12:31:37;22.70;41.00
44517;DHT22;30223;17.182;-96.766;2023-03-01T12:36:51;22.70;41.00
44517;DHT22;30223;17.182;-96.766;2023-03-01T12:42:18;22.70;41.00
44517;DHT22;30223;17.182;-96.766;2023-03-01T12:47:58;22.60;41.00
44517;DHT22;30223;17.182;-96.766;2023-03-01T12:50:44;22.60;41.00
44517;DHT22;30223;17.182;-96.766;2023-03-01T12:55:55;22.60;41.10
44517;DHT22;30223;17.182;-96.766;2023-03-01T13:01:22;22.50;41.00
44517;DHT22;30223;17.182;-96.766;2023-03-01T13:10:26;22.40;41.10
44517;DHT22;30223;17.182;-96.766;2023-03-01T13:13:08;22.40;41.20
44517;DHT22;30223;17.182;-96.766;2023-03-01T13:15:38;22.40;41.30
44517;DHT22;30223;17.182;-96.766;2023-03-01T13:20:56;22.40;41.40
44517;DHT22;30223;17.182;-96.766;2023-03-01T13:23:28;22.40;41.40
44517;DHT22;30223;17.182;-96.766;2023-03-01T13:26:05;22.30;41.30
44517;DHT22;30223;17.182;-96.766;2023-03-01T13:33:55;22.30;41.30
44517;DHT22;30223;17.182;-96.766;2023-03-01T13:46:59;22.20;41.30
44517;DHT22;30223;17.182;-96.766;2023-03-01T13:49:32;22.20;41.30
44517;DHT22;30223;17.182;-96.766;2023-03-01T13:52:02;22.10;41.20
44517;DHT22;30223;17.182;-96.766;2023-03-01T13:54:31;22.10;41.30
44517;DHT22;30223;17.182;-96.766;2023-03-01T13:57:00;22.10;41.30
44517;DHT22;30223;17.182;-96.766;2023-03-01T13:59:27;22.10;41.30
44517;DHT22;30223;17.182;-96.766;2023-03-01T14:02:00;22.10;41.30
44517;DHT22;30223;17.182;-96.766;2023-03-01T14:04:31;22.10;41.30
44517;DHT22;30223;17.182;-96.766;2023-03-01T14:07:12;22.10;41.30
44517;DHT22;30223;17.182;-96.766;2023-03-01T14:09:44;22.10;41.20
44517;DHT22;30223;17.182;-96.766;2023-03-01T14:15:02;22.10;41.20
44517;DHT22;30223;17.182;-96.766;2023-03-01T14:20:22;22.10;41.20
44517;DHT22;30223;17.182;-96.766;2023-03-01T14:22:51;22.00;41.10
44517;DHT22;30223;17.182;-96.766;2023-03-01T14:25:28;22.10;41.20
44517;DHT22;30223;17.182;-96.766;2023-03-01T14:27:59;22.00;41.10
44517;DHT22;30223;17.182;-96.766;2023-03-01T14:30:38;22.10;41.20
44517;DHT22;30223;17.182;-96.766;2023-03-01T14:33:38;22.00;41.10
44517;DHT22;30223;17.182;-96.766;2023-03-01T14:36:09;22.00;41.20
44517;DHT22;30223;17.182;-96.766;2023-03-01T14:38:38;22.00;41.20
44517;DHT22;30223;17.182;-96.766;2023-03-01T14:41:09;22.00;41.20
44517;DHT22;30223;17.182;-96.766;2023-03-01T14:43:38;22.00;41.20
44517;DHT22;30223;17.182;-96.766;2023-03-01T14:46:26;22.00;41.20
44517;DHT22;30223;17.182;-96.766;2023-03-01T14:49:01;22.00;41.20
44517;DHT22;30223;17.182;-96.766;2023-03-01T14:51:28;22.00;41.20
44517;DHT22;30223;17.182;-96.766;2023-03-01T14:53:55;22.10;41.30
44517;DHT22;30223;17.182;-96.766;2023-03-01T14:56:22;22.00;41.30
44517;DHT22;30223;17.182;-96.766;2023-03-01T14:58:53;22.10;41.40
44517;DHT22;30223;17.182;-96.766;2023-03-01T15:01:24;22.10;41.30
44517;DHT22;30223;17.182;-96.766;2023-03-01T15:03:51;22.10;41.40
44517;DHT22;30223;17.182;-96.766;2023-03-01T15:06:20;22.10;41.40
44517;DHT22;30223;17.182;-96.766;2023-03-01T15:08:54;22.10;41.40
44517;DHT22;30223;17.182;-96.766;2023-03-01T15:11:31;22.10;41.40
44517;DHT22;30223;17.182;-96.766;2023-03-01T15:13:58;22.10;41.40
44517;DHT22;30223;17.182;-96.766;2023-03-01T15:16:39;22.10;41.40
44517;DHT22;30223;17.182;-96.766;2023-03-01T15:19:07;22.20;41.50
44517;DHT22;30223;17.182;-96.766;2023-03-01T15:21:38;22.20;41.60
44517;DHT22;30223;17.182;-96.766;2023-03-01T15:24:16;22.20;41.60
44517;DHT22;30223;17.182;-96.766;2023-03-01T15:26:53;22.20;41.70
44517;DHT22;30223;17.182;-96.766;2023-03-01T15:29:26;22.20;41.70
44517;DHT22;30223;17.182;-96.766;2023-03-01T15:32:03;22.30;41.80
44517;DHT22;30223;17.182;-96.766;2023-03-01T15:34:34;22.20;41.80
44517;DHT22;30223;17.182;-96.766;2023-03-01T15:37:05;22.30;41.80
44517;DHT22;30223;17.182;-96.766;2023-03-01T15:39:38;22.30;41.90
44517;DHT22;30223;17.182;-96.766;2023-03-01T15:42:13;22.30;41.80
44517;DHT22;30223;17.182;-96.766;2023-03-01T15:45:21;22.30;41.90
44517;DHT22;30223;17.182;-96.766;2023-03-01T15:47:52;22.30;41.90
44517;DHT22;30223;17.182;-96.766;2023-03-01T15:50:30;22.30;42.00
44517;DHT22;30223;17.182;-96.766;2023-03-01T15:53:00;22.40;42.10
44517;DHT22;30223;17.182;-96.766;2023-03-01T15:55:32;22.40;42.10
44517;DHT22;30223;17.182;-96.766;2023-03-01T15:58:12;22.40;42.10
44517;DHT22;30223;17.182;-96.766;2023-03-01T16:00:39;22.40;42.20
44517;DHT22;30223;17.182;-96.766;2023-03-01T16:03:08;22.40;42.20
44517;DHT22;30223;17.182;-96.766;2023-03-01T16:05:36;22.40;42.20
44517;DHT22;30223;17.182;-96.766;2023-03-01T16:08:04;22.50;42.20
44517;DHT22;30223;17.182;-96.766;2023-03-01T16:10:38;22.50;42.30
44517;DHT22;30223;17.182;-96.766;2023-03-01T16:13:05;22.50;42.30
44517;DHT22;30223;17.182;-96.766;2023-03-01T16:15:33;22.50;42.30
44517;DHT22;30223;17.182;-96.766;2023-03-01T16:18:04;22.50;42.30
44517;DHT22;30223;17.182;-96.766;2023-03-01T16:20:36;22.60;42.40
44517;DHT22;30223;17.182;-96.766;2023-03-01T16:23:06;22.60;42.40
44517;DHT22;30223;17.182;-96.766;2023-03-01T16:25:34;22.70;42.50
44517;DHT22;30223;17.182;-96.766;2023-03-01T16:28:01;22.60;42.50
44517;DHT22;30223;17.182;-96.766;2023-03-01T16:30:31;22.60;42.60
44517;DHT22;30223;17.182;-96.766;2023-03-01T16:32:57;22.70;43.30
44517;DHT22;30223;17.182;-96.766;2023-03-01T16:35:24;22.70;42.70
44517;DHT22;30223;17.182;-96.766;2023-03-01T16:37:51;22.70;42.70
44517;DHT22;30223;17.182;-96.766;2023-03-01T16:40:26;22.80;42.80
44517;DHT22;30223;17.182;-96.766;2023-03-01T16:42:54;22.80;42.80
44517;DHT22;30223;17.182;-96.766;2023-03-01T16:45:25;22.80;42.80
44517;DHT22;30223;17.182;-96.766;2023-03-01T16:47:53;22.90;43.00
44517;DHT22;30223;17.182;-96.766;2023-03-01T16:50:19;22.90;43.00
44517;DHT22;30223;17.182;-96.766;2023-03-01T16:52:46;22.90;43.00
44517;DHT22;30223;17.182;-96.766;2023-03-01T16:55:13;22.90;43.00
44517;DHT22;30223;17.182;-96.766;2023-03-01T16:57:39;22.90;43.60
44517;DHT22;30223;17.182;-96.766;2023-03-01T17:00:08;23.00;43.10
44517;DHT22;30223;17.182;-96.766;2023-03-01T17:02:37;23.00;43.10
44517;DHT22;30223;17.182;-96.766;2023-03-01T17:05:04;23.00;43.20
44517;DHT22;30223;17.182;-96.766;2023-03-01T17:07:34;23.00;43.10